Etusivu
METAR-TAF:

METAR-TAF

Lentoasemat :

Elsenborn

Bütgenbach, Belgia

Leveyspiiri: 50-28N, Pituuspiiri: 006-11E, korkeus merenpinnasta: 564 m

Tämänhetkinen sää

Tämä raportti tehtiin 18 minuuttia sitten, kello 14.20 UTC
Tuuli 12 kn lännestä/lounaasta
Lämpötila 10°C
Kosteus 76%
Ilmanpaine 1008 hPa
Näkyvyys 10 km tai enemmän

METAR: EBLB 181420Z AUTO 24012KT 9999 SCT025/// 10/06 Q1008 BLU

Aika: 16:38 (14:38 UTC)


TAF: puuttuu

Säähavainnot ja -ennusteet yli 4000 lentoasemalta (METAR- ja TAF-raportit).

Käytössä olevat sääasemat on merkitty karttaan keltaisilla ja punaisilla pisteillä.

Aseta hiiri pisteen päälle nähdäksesi sääaseman nimen.

Klikkaa sitten nähdäksesi säähavainnot ja -ennusteet.

Kartan vaihtaminen: klikkaa mustalla rastilla varustettuja vihreitä pisteitä, niin voit zoomata sisään; viivalla varustettua vihreää pistettä, niin voit zoomata ulos tai vihreitä nuolia, niin pääset viereisille kartoille.


METAR-TAF: